createdAt,value
2022-12-23T00:00:43.763Z,16.63
2022-12-23T00:03:11.092Z,16.80
2022-12-23T00:05:39.402Z,18.37
2022-12-23T00:08:07.818Z,20.07
2022-12-23T00:10:38.811Z,26.90
2022-12-23T00:13:24.757Z,16.93
2022-12-23T00:15:51.766Z,21.80
2022-12-23T00:18:18.649Z,19.83
2022-12-23T00:20:45.547Z,22.17
2022-12-23T00:23:12.425Z,20.40
2022-12-23T00:25:44.713Z,18.33
2022-12-23T00:28:18.758Z,23.30
2022-12-23T00:30:54.833Z,20.73
2022-12-23T00:33:24.433Z,23.27
2022-12-23T00:35:51.904Z,22.30
2022-12-23T00:38:38.831Z,25.37
2022-12-23T00:41:28.902Z,22.70
2022-12-23T00:43:55.982Z,25.63
2022-12-23T00:46:24.002Z,27.93
2022-12-23T00:49:09.368Z,26.33
2022-12-23T00:51:36.630Z,20.03
2022-12-23T00:54:04.715Z,21.37
2022-12-23T00:56:31.891Z,22.20
2022-12-23T00:59:00.322Z,17.53
2022-12-23T01:01:45.915Z,23.87
2022-12-23T01:04:35.222Z,20.50
2022-12-23T01:07:03.281Z,23.33
2022-12-23T01:09:30.302Z,21.13
2022-12-23T01:11:58.173Z,23.97
2022-12-23T01:14:25.255Z,27.60
2022-12-23T01:16:52.226Z,21.20
2022-12-23T01:19:19.583Z,31.77
2022-12-23T01:21:46.544Z,31.97
2022-12-23T01:24:13.600Z,28.00
2022-12-23T01:26:40.555Z,27.30
2022-12-23T01:29:07.508Z,27.67
2022-12-23T01:31:34.496Z,35.27
2022-12-23T01:34:01.422Z,19.00
2022-12-23T01:36:28.407Z,25.17
2022-12-23T01:38:56.702Z,21.03
2022-12-23T01:41:48.817Z,24.87
2022-12-23T01:44:53.320Z,22.23
2022-12-23T01:47:31.109Z,18.90
2022-12-23T01:50:01.938Z,20.10
2022-12-23T01:52:31.011Z,17.13
2022-12-23T01:54:58.353Z,23.47
2022-12-23T01:57:25.869Z,19.37
2022-12-23T02:00:11.729Z,18.10
2022-12-23T02:02:59.714Z,17.73
2022-12-23T02:05:28.037Z,16.77
2022-12-23T02:08:14.366Z,18.53
2022-12-23T02:11:03.269Z,17.13
2022-12-23T02:14:29.367Z,12.10
2022-12-23T02:17:05.446Z,16.93
2022-12-23T02:20:14.121Z,17.83
2022-12-23T02:23:12.150Z,18.63
2022-12-23T02:25:45.235Z,21.87
2022-12-23T02:28:50.083Z,14.67
2022-12-23T02:31:25.785Z,18.67
2022-12-23T02:34:21.225Z,20.13
2022-12-23T02:37:15.389Z,23.27
2022-12-23T02:39:54.174Z,25.57
2022-12-23T02:42:25.779Z,21.50
2022-12-23T02:45:11.923Z,23.93
2022-12-23T02:47:44.694Z,16.27
2022-12-23T02:50:20.234Z,25.07
2022-12-23T02:52:49.598Z,15.83
2022-12-23T02:55:24.371Z,16.83
2022-12-23T02:57:55.196Z,13.63
2022-12-23T03:00:23.286Z,13.60
2022-12-23T03:02:50.727Z,18.27
2022-12-23T03:05:33.632Z,11.63
2022-12-23T03:08:04.422Z,14.20
2022-12-23T03:11:02.803Z,12.37
2022-12-23T03:13:41.801Z,15.10
2022-12-23T03:16:14.674Z,11.37
2022-12-23T03:18:56.866Z,11.57
2022-12-23T03:21:42.486Z,12.67
2022-12-23T03:24:15.669Z,22.63
2022-12-23T03:27:11.665Z,12.80
2022-12-23T03:29:55.611Z,18.87
2022-12-23T03:32:24.784Z,15.33
2022-12-23T03:34:56.018Z,11.43
2022-12-23T03:37:25.491Z,13.13
2022-12-23T03:40:02.067Z,12.27
2022-12-23T03:42:38.309Z,9.77
2022-12-23T03:48:07.969Z,14.70
2022-12-23T03:50:36.609Z,14.63
2022-12-23T03:53:35.414Z,16.37
2022-12-23T03:56:07.653Z,17.87
2022-12-23T03:58:40.299Z,18.47
2022-12-23T04:01:46.004Z,16.80
2022-12-23T04:04:27.317Z,17.00
2022-12-23T04:07:25.778Z,15.93
2022-12-23T04:09:54.311Z,13.73
2022-12-23T04:12:26.211Z,15.63
2022-12-23T04:14:53.468Z,10.90
2022-12-23T04:17:20.741Z,20.47
2022-12-23T04:19:47.800Z,12.33
2022-12-23T04:22:16.295Z,17.37
2022-12-23T04:24:44.132Z,12.17
2022-12-23T04:27:14.165Z,14.87
2022-12-23T04:29:41.473Z,15.80
2022-12-23T04:32:08.496Z,15.77
2022-12-23T04:34:35.552Z,14.20
2022-12-23T04:37:02.714Z,12.43
2022-12-23T04:39:29.605Z,19.83
2022-12-23T04:41:56.546Z,10.70
2022-12-23T04:44:23.454Z,16.90
2022-12-23T04:46:50.392Z,15.47
2022-12-23T04:49:17.353Z,10.90
2022-12-23T04:51:44.258Z,15.97
2022-12-23T04:54:11.187Z,13.43
2022-12-23T04:56:38.047Z,12.03
2022-12-23T04:59:04.922Z,14.47
2022-12-23T05:01:31.930Z,15.77
2022-12-23T05:03:58.865Z,9.33
2022-12-23T05:06:26.898Z,15.37
2022-12-23T05:08:53.781Z,9.17
2022-12-23T05:11:20.681Z,14.77
2022-12-23T05:13:47.556Z,14.37
2022-12-23T05:16:14.697Z,10.97
2022-12-23T05:18:41.604Z,14.03
2022-12-23T05:21:08.591Z,15.20
2022-12-23T05:23:35.624Z,12.37
2022-12-23T05:26:02.521Z,14.80
2022-12-23T05:28:29.837Z,14.37
2022-12-23T05:31:05.915Z,15.37
2022-12-23T05:33:34.012Z,14.73
2022-12-23T05:36:01.354Z,12.53
2022-12-23T05:38:28.245Z,15.17
2022-12-23T05:40:55.262Z,17.33
2022-12-23T05:43:22.885Z,17.23
2022-12-23T05:45:50.701Z,11.93
2022-12-23T05:48:18.052Z,16.63
2022-12-23T05:50:44.952Z,8.67
2022-12-23T05:53:11.873Z,7.93
2022-12-23T05:55:38.758Z,13.30
2022-12-23T05:58:05.926Z,11.20
2022-12-23T06:00:32.932Z,10.20
2022-12-23T06:03:00.346Z,7.27
2022-12-23T06:05:27.490Z,12.33
2022-12-23T06:07:54.449Z,10.07
2022-12-23T06:10:21.587Z,7.90
2022-12-23T06:12:48.530Z,8.67
2022-12-23T06:15:15.808Z,8.20
2022-12-23T06:17:42.752Z,7.33
2022-12-23T06:20:17.855Z,5.37
2022-12-23T06:22:47.086Z,6.93
2022-12-23T06:25:14.110Z,7.60
2022-12-23T06:27:40.994Z,8.43
2022-12-23T06:30:08.613Z,7.03
2022-12-23T06:32:38.630Z,7.93
2022-12-23T06:35:07.447Z,7.60
2022-12-23T06:37:34.511Z,5.83
2022-12-23T06:40:01.357Z,5.43
2022-12-23T06:42:28.333Z,6.53
2022-12-23T06:44:55.281Z,8.70
2022-12-23T06:47:23.210Z,6.67
2022-12-23T06:49:50.068Z,10.53
2022-12-23T06:52:17.123Z,9.83
2022-12-23T06:54:44.117Z,8.73
2022-12-23T06:57:10.994Z,8.53
2022-12-23T06:59:37.951Z,8.13
2022-12-23T07:02:05.133Z,5.67
2022-12-23T07:04:32.165Z,8.33
2022-12-23T07:06:59.054Z,6.50
2022-12-23T07:09:26.528Z,7.23
2022-12-23T07:11:53.541Z,7.83
2022-12-23T07:14:20.442Z,8.80
2022-12-23T07:16:47.403Z,6.03
2022-12-23T07:19:14.406Z,8.87
2022-12-23T07:21:41.300Z,6.83
2022-12-23T07:24:08.710Z,8.90
2022-12-23T07:26:35.805Z,7.17
2022-12-23T07:29:02.820Z,6.53
2022-12-23T07:31:29.818Z,9.47
2022-12-23T07:33:56.705Z,10.90
2022-12-23T07:36:24.582Z,8.83
2022-12-23T07:38:51.894Z,9.60
2022-12-23T07:41:18.872Z,12.73
2022-12-23T07:43:46.142Z,7.73
2022-12-23T07:46:13.104Z,8.07
2022-12-23T07:48:41.836Z,10.73
2022-12-23T07:51:08.901Z,8.77
2022-12-23T07:53:36.072Z,8.23
2022-12-23T07:56:03.079Z,10.77
2022-12-23T07:58:30.189Z,6.70
2022-12-23T08:01:05.716Z,9.87
2022-12-23T08:03:32.761Z,6.10
2022-12-23T08:06:05.705Z,9.67
2022-12-23T08:08:33.281Z,6.97
2022-12-23T08:11:02.496Z,8.67
2022-12-23T08:13:30.496Z,8.63
2022-12-23T08:15:58.808Z,11.87
2022-12-23T08:18:26.715Z,8.93
2022-12-23T08:20:57.894Z,7.70
2022-12-23T08:23:25.729Z,7.90
2022-12-23T08:26:21.248Z,8.07
2022-12-23T08:28:49.667Z,11.57
2022-12-23T08:31:27.987Z,12.33
2022-12-23T08:33:56.744Z,13.97
2022-12-23T08:36:26.804Z,12.20
2022-12-23T08:38:55.879Z,16.50
2022-12-23T08:41:26.219Z,12.73
2022-12-23T08:43:53.776Z,15.47
2022-12-23T08:46:21.165Z,12.67
2022-12-23T08:48:49.751Z,14.13
2022-12-23T08:51:18.501Z,15.47
2022-12-23T08:53:45.824Z,16.20
2022-12-23T08:56:16.190Z,11.90
2022-12-23T08:58:45.703Z,9.57
2022-12-23T09:01:15.123Z,11.47
2022-12-23T09:03:42.802Z,14.73
2022-12-23T09:06:28.297Z,13.63
2022-12-23T09:08:56.357Z,15.37
2022-12-23T09:11:25.211Z,10.77
2022-12-23T09:13:52.230Z,14.67
2022-12-23T09:16:19.428Z,11.37
2022-12-23T09:18:46.457Z,12.70
2022-12-23T09:21:19.453Z,15.43
2022-12-23T09:23:46.659Z,14.53
2022-12-23T09:26:19.858Z,10.17
2022-12-23T09:28:46.749Z,9.63
2022-12-23T09:31:14.296Z,8.53
2022-12-23T09:33:41.236Z,13.33
2022-12-23T09:36:08.552Z,12.07
2022-12-23T09:38:36.335Z,11.53
2022-12-23T09:41:16.320Z,13.00
2022-12-23T09:44:13.710Z,12.73
2022-12-23T09:46:49.090Z,13.87
2022-12-23T09:49:18.820Z,12.50
2022-12-23T09:51:47.303Z,15.03
2022-12-23T09:54:30.169Z,14.37
2022-12-23T09:57:06.255Z,18.63
2022-12-23T09:59:59.300Z,23.17
2022-12-23T10:02:50.878Z,18.17
2022-12-23T10:05:39.588Z,21.13
2022-12-23T10:08:29.808Z,13.80
2022-12-23T10:11:18.860Z,17.30
2022-12-23T10:13:49.547Z,15.73
2022-12-23T10:16:18.541Z,13.57
2022-12-23T10:18:51.448Z,17.40
2022-12-23T10:21:40.014Z,16.93
2022-12-23T10:24:24.373Z,17.40
2022-12-23T10:26:59.578Z,15.87
2022-12-23T10:29:30.721Z,18.73
2022-12-23T10:32:16.073Z,14.13
2022-12-23T10:35:02.721Z,17.73
2022-12-23T10:37:32.424Z,16.23
2022-12-23T10:40:25.550Z,18.97
2022-12-23T10:43:11.071Z,14.30
2022-12-23T10:45:59.452Z,10.20
2022-12-23T10:48:53.443Z,15.73
2022-12-23T10:51:28.453Z,12.83
2022-12-23T10:54:14.334Z,13.03
2022-12-23T10:56:41.269Z,18.00
2022-12-23T10:59:15.235Z,15.67
2022-12-23T11:01:47.692Z,32.53
2022-12-23T11:04:19.414Z,16.27
2022-12-23T11:07:10.818Z,12.93
2022-12-23T11:10:02.419Z,20.10
2022-12-23T11:12:44.523Z,11.47
2022-12-23T11:15:34.324Z,14.63
2022-12-23T11:18:12.303Z,13.67
2022-12-23T11:20:42.231Z,17.23
2022-12-23T11:23:36.843Z,10.20
2022-12-23T11:26:11.377Z,11.90
2022-12-23T11:28:48.234Z,14.83
2022-12-23T11:31:17.128Z,12.53
2022-12-23T11:33:57.421Z,10.13
2022-12-23T11:36:29.261Z,13.47
2022-12-23T11:39:02.983Z,11.80
2022-12-23T11:41:51.314Z,13.53
2022-12-23T11:44:40.326Z,8.73
2022-12-23T11:47:37.933Z,9.40
2022-12-23T11:50:28.153Z,9.40
2022-12-23T11:53:11.686Z,10.83
2022-12-23T11:55:47.047Z,10.17
2022-12-23T11:58:21.373Z,8.23
2022-12-23T12:00:56.272Z,9.93
2022-12-23T12:03:33.600Z,11.70
2022-12-23T12:06:05.800Z,13.50
2022-12-23T12:08:37.047Z,14.27
2022-12-23T12:11:12.315Z,16.90
2022-12-23T12:13:44.614Z,14.50
2022-12-23T12:16:26.745Z,11.50
2022-12-23T12:18:57.791Z,7.17
2022-12-23T12:21:30.476Z,12.17
2022-12-23T12:24:18.486Z,7.17
2022-12-23T12:26:51.432Z,10.17
2022-12-23T12:29:31.050Z,8.50
2022-12-23T12:32:00.208Z,7.87
2022-12-23T12:34:57.755Z,5.63
2022-12-23T12:37:38.202Z,8.10
2022-12-23T12:40:53.460Z,7.20
2022-12-23T12:43:32.040Z,5.90
2022-12-23T12:46:23.821Z,4.27
2022-12-23T12:49:05.546Z,5.50
2022-12-23T12:51:58.407Z,8.27
2022-12-23T12:54:32.602Z,9.63
2022-12-23T12:56:59.987Z,11.83
2022-12-23T12:59:29.625Z,12.93
2022-12-23T13:02:20.676Z,17.60
2022-12-23T13:05:00.609Z,16.70
2022-12-23T13:07:55.367Z,20.47
2022-12-23T13:10:44.246Z,19.27
2022-12-23T13:13:32.635Z,16.47
2022-12-23T13:16:08.461Z,17.93
2022-12-23T13:18:49.345Z,14.17
2022-12-23T13:21:27.008Z,12.47
2022-12-23T13:24:08.015Z,13.77
2022-12-23T13:26:52.014Z,12.77
2022-12-23T13:29:41.885Z,11.67
2022-12-23T13:32:27.236Z,14.47
2022-12-23T13:35:12.445Z,15.77
2022-12-23T13:38:04.290Z,17.73
2022-12-23T13:40:37.050Z,24.97
2022-12-23T13:43:11.669Z,19.87
2022-12-23T13:45:39.931Z,24.33
2022-12-23T13:48:33.401Z,30.03
2022-12-23T13:51:32.519Z,28.67
2022-12-23T13:54:18.248Z,25.57
2022-12-23T13:57:17.681Z,23.67
2022-12-23T14:00:05.422Z,32.30
2022-12-23T14:02:35.748Z,28.67
2022-12-23T14:05:09.265Z,27.87
2022-12-23T14:07:38.700Z,33.10
2022-12-23T14:10:19.328Z,40.10
2022-12-23T14:12:47.674Z,35.93
2022-12-23T14:15:27.214Z,40.23
2022-12-23T14:18:35.578Z,42.43
2022-12-23T14:21:22.086Z,37.93
2022-12-23T14:23:51.808Z,41.43
2022-12-23T14:26:47.566Z,40.30
2022-12-23T14:29:32.449Z,47.20
2022-12-23T14:31:59.639Z,41.10
2022-12-23T14:34:30.672Z,63.13
2022-12-23T14:37:23.745Z,60.23
2022-12-23T14:39:51.932Z,53.23
2022-12-23T14:42:41.518Z,53.77
2022-12-23T14:45:30.451Z,53.27
2022-12-23T14:47:57.467Z,50.70
2022-12-23T14:50:38.465Z,64.63
2022-12-23T14:53:29.401Z,58.53
2022-12-23T14:56:19.205Z,61.23
2022-12-23T14:58:52.129Z,61.97
2022-12-23T15:01:42.796Z,58.07
2022-12-23T15:04:23.534Z,43.47
2022-12-23T15:07:04.702Z,57.83
2022-12-23T15:09:35.708Z,48.33
2022-12-23T15:12:12.834Z,53.00
2022-12-23T15:14:57.363Z,46.57
2022-12-23T15:17:33.721Z,40.87
2022-12-23T15:20:24.987Z,50.07
2022-12-23T15:22:55.068Z,45.27
2022-12-23T15:25:31.608Z,50.87
2022-12-23T15:28:02.248Z,49.93
2022-12-23T15:30:49.558Z,46.70
2022-12-23T15:34:00.794Z,52.80
2022-12-23T15:36:10.030Z,47.27
2022-12-23T15:38:38.881Z,38.57
2022-12-23T15:41:15.256Z,42.77
2022-12-23T15:43:42.806Z,42.03
2022-12-23T15:46:28.668Z,49.27
2022-12-23T15:48:56.436Z,48.90
2022-12-23T15:51:57.921Z,49.53
2022-12-23T15:54:23.653Z,38.00
2022-12-23T15:56:53.692Z,45.10
2022-12-23T15:59:39.518Z,46.23
2022-12-23T16:02:49.748Z,44.60
2022-12-23T16:05:04.535Z,49.33
2022-12-23T16:07:40.089Z,46.97
2022-12-23T16:10:22.306Z,39.20
2022-12-23T16:12:51.669Z,42.87
2022-12-23T16:15:26.105Z,52.83
2022-12-23T16:18:10.895Z,49.30
2022-12-23T16:20:56.216Z,44.23
2022-12-23T16:23:24.225Z,37.80
2022-12-23T16:25:53.424Z,38.67
2022-12-23T16:28:29.258Z,51.50
2022-12-23T16:30:58.383Z,48.67
2022-12-23T16:33:39.780Z,51.03
2022-12-23T16:36:25.893Z,45.53
2022-12-23T16:39:01.219Z,54.33
2022-12-23T16:41:28.080Z,41.77
2022-12-23T16:43:55.025Z,46.17
2022-12-23T16:46:23.446Z,52.37
2022-12-23T16:48:53.564Z,54.47
2022-12-23T16:51:24.714Z,45.77
2022-12-23T16:53:55.303Z,45.83
2022-12-23T16:56:24.721Z,51.20
2022-12-23T16:58:51.620Z,48.17
2022-12-23T17:01:26.299Z,42.67
2022-12-23T17:03:53.615Z,47.03
2022-12-23T17:06:21.036Z,40.23
2022-12-23T17:08:48.416Z,44.80
2022-12-23T17:11:23.010Z,44.63
2022-12-23T17:13:50.468Z,45.33
2022-12-23T17:16:20.210Z,39.50
2022-12-23T17:18:52.541Z,45.43
2022-12-23T17:21:29.264Z,43.37
2022-12-23T17:24:03.240Z,39.50
2022-12-23T17:26:30.118Z,34.57
2022-12-23T17:28:56.985Z,42.17
2022-12-23T17:31:27.063Z,30.63
2022-12-23T17:33:54.580Z,35.10
2022-12-23T17:36:21.964Z,34.17
2022-12-23T17:38:48.924Z,43.47
2022-12-23T17:41:42.507Z,36.80
2022-12-23T17:44:13.432Z,33.60
2022-12-23T17:46:40.511Z,34.33
2022-12-23T17:49:08.767Z,28.50
2022-12-23T17:51:35.913Z,36.13
2022-12-23T17:54:04.607Z,35.00
2022-12-23T17:56:31.951Z,34.77
2022-12-23T17:58:58.984Z,34.77
2022-12-23T18:01:29.921Z,29.50
2022-12-23T18:03:59.302Z,37.93
2022-12-23T18:06:28.802Z,27.40
2022-12-23T18:08:59.419Z,27.43
2022-12-23T18:11:58.927Z,40.43
2022-12-23T18:14:31.959Z,44.13
2022-12-23T18:16:59.453Z,47.23
2022-12-23T18:19:26.575Z,43.33
2022-12-23T18:21:53.610Z,45.37
2022-12-23T18:24:21.471Z,45.70
2022-12-23T18:26:49.388Z,43.77
2022-12-23T18:29:16.278Z,42.67
2022-12-23T18:31:51.517Z,45.43
2022-12-23T18:34:20.007Z,44.27
2022-12-23T18:36:48.537Z,41.77
2022-12-23T18:39:15.700Z,39.90
2022-12-23T18:41:42.570Z,49.27
2022-12-23T18:44:18.584Z,41.60
2022-12-23T18:46:45.480Z,39.50
2022-12-23T18:49:12.421Z,39.47
2022-12-23T18:51:39.337Z,39.97
2022-12-23T18:54:06.238Z,44.20
2022-12-23T18:56:33.180Z,43.83
2022-12-23T18:59:00.103Z,46.77
2022-12-23T19:01:28.380Z,52.83
2022-12-23T19:03:55.343Z,50.00
2022-12-23T19:06:22.223Z,47.00
2022-12-23T19:08:49.161Z,47.77
2022-12-23T19:11:20.733Z,40.87
2022-12-23T19:13:51.296Z,43.40
2022-12-23T19:16:20.591Z,51.67
2022-12-23T19:18:48.862Z,55.67
2022-12-23T19:21:17.607Z,49.23
2022-12-23T19:23:44.808Z,54.63
2022-12-23T19:26:14.918Z,47.80
2022-12-23T19:28:42.157Z,50.10
2022-12-23T19:31:10.816Z,54.50
2022-12-23T19:33:39.095Z,58.17
2022-12-23T19:36:14.434Z,49.00
2022-12-23T19:38:41.849Z,42.13
2022-12-23T19:41:09.200Z,49.63
2022-12-23T19:43:38.099Z,48.90
2022-12-23T19:46:07.996Z,40.30
2022-12-23T19:48:35.124Z,49.13
2022-12-23T19:51:07.656Z,55.43
2022-12-23T19:53:35.295Z,54.10
2022-12-23T19:56:03.523Z,53.37
2022-12-23T19:58:33.673Z,58.37
2022-12-23T20:01:28.441Z,57.13
2022-12-23T20:03:56.410Z,56.33
2022-12-23T20:06:29.353Z,38.67
2022-12-23T20:09:00.895Z,52.40
2022-12-23T20:11:30.699Z,45.23
2022-12-23T20:13:58.532Z,53.90
2022-12-23T20:16:26.430Z,49.37
2022-12-23T20:18:54.131Z,45.47
2022-12-23T20:21:21.651Z,54.43
2022-12-23T20:23:49.134Z,49.93
2022-12-23T20:26:17.920Z,58.20
2022-12-23T20:28:45.761Z,47.33
2022-12-23T20:31:15.749Z,42.57
2022-12-23T20:33:42.968Z,47.37
2022-12-23T20:36:11.813Z,45.20
2022-12-23T20:38:40.082Z,41.50
2022-12-23T20:41:08.090Z,48.87
2022-12-23T20:43:35.099Z,51.33
2022-12-23T20:46:03.515Z,48.80
2022-12-23T20:48:34.101Z,51.77
2022-12-23T20:51:06.572Z,58.67
2022-12-23T20:53:34.237Z,57.40
2022-12-23T20:56:03.291Z,57.17
2022-12-23T20:58:49.183Z,65.17
2022-12-23T21:01:16.328Z,60.83
2022-12-23T21:03:43.405Z,52.27
2022-12-23T21:06:10.421Z,66.70
2022-12-23T21:08:38.344Z,57.03
2022-12-23T21:11:07.566Z,50.40
2022-12-23T21:13:36.953Z,50.77
2022-12-23T21:16:07.210Z,60.33
2022-12-23T21:18:34.355Z,45.27
2022-12-23T21:21:04.251Z,46.20
2022-12-23T21:23:32.098Z,46.07
2022-12-23T21:26:09.652Z,36.37
2022-12-23T21:28:37.822Z,56.27
2022-12-23T21:31:05.751Z,46.77
2022-12-23T21:33:36.203Z,56.47
2022-12-23T21:36:03.566Z,41.27
2022-12-23T21:38:36.105Z,51.13
2022-12-23T21:41:05.515Z,47.30
2022-12-23T21:43:32.881Z,45.17
2022-12-23T21:46:02.356Z,58.57
2022-12-23T21:48:32.361Z,46.93
2022-12-23T21:51:07.487Z,53.53
2022-12-23T21:53:35.559Z,44.97
2022-12-23T21:56:08.144Z,59.97
2022-12-23T21:58:35.902Z,60.40
2022-12-23T22:01:14.626Z,49.37
2022-12-23T22:03:42.797Z,51.00
2022-12-23T22:06:12.934Z,50.90
2022-12-23T22:08:40.839Z,57.93
2022-12-23T22:11:13.576Z,40.70
2022-12-23T22:13:41.628Z,42.40
2022-12-23T22:16:20.429Z,45.77
2022-12-23T22:18:49.337Z,38.77
2022-12-23T22:21:19.142Z,45.50
2022-12-23T22:23:47.003Z,42.73
2022-12-23T22:26:23.882Z,33.27
2022-12-23T22:28:52.318Z,39.37
2022-12-23T22:31:34.498Z,33.43
2022-12-23T22:34:02.156Z,37.97
2022-12-23T22:36:29.317Z,35.43
2022-12-23T22:38:58.558Z,42.80
2022-12-23T22:41:28.060Z,37.97
2022-12-23T22:43:55.336Z,38.07
2022-12-23T22:46:24.494Z,32.37
2022-12-23T22:48:52.116Z,44.17
2022-12-23T22:51:25.959Z,43.87
2022-12-23T22:53:53.769Z,36.77
2022-12-23T22:56:22.384Z,40.23
2022-12-23T22:58:50.181Z,52.33
2022-12-23T23:01:29.093Z,42.50
2022-12-23T23:03:58.342Z,45.83
2022-12-23T23:06:27.454Z,53.23
2022-12-23T23:08:55.136Z,48.63
2022-12-23T23:11:23.601Z,47.00
2022-12-23T23:13:50.772Z,35.90
2022-12-23T23:16:17.762Z,58.33
2022-12-23T23:18:44.934Z,44.57
2022-12-23T23:21:16.412Z,47.73
2022-12-23T23:23:43.428Z,45.17
2022-12-23T23:26:10.768Z,58.67
2022-12-23T23:28:39.572Z,49.67
2022-12-23T23:33:54.712Z,44.60
2022-12-23T23:36:21.790Z,43.97
2022-12-23T23:38:48.749Z,43.17
2022-12-23T23:41:20.647Z,41.50
2022-12-23T23:43:50.075Z,43.00
2022-12-23T23:46:17.048Z,52.57
2022-12-23T23:48:44.056Z,49.10
2022-12-23T23:51:10.990Z,46.60
2022-12-23T23:53:38.057Z,47.50
2022-12-23T23:56:08.759Z,61.53
2022-12-23T23:58:36.380Z,55.60
